sensor_id;sensor_type;location;lat;lon;timestamp;P1;durP1;ratioP1;P2;durP2;ratioP2
65373;SDS011;52070;53.760;9.678;2023-07-13T00:00:09;8.05;;;2.38;;
65373;SDS011;52070;53.760;9.678;2023-07-13T00:02:37;4.95;;;2.15;;
65373;SDS011;52070;53.760;9.678;2023-07-13T00:05:04;8.13;;;2.60;;
65373;SDS011;52070;53.760;9.678;2023-07-13T00:07:33;10.25;;;2.95;;
65373;SDS011;52070;53.760;9.678;2023-07-13T00:10:01;6.78;;;2.67;;
65373;SDS011;52070;53.760;9.678;2023-07-13T00:12:29;6.18;;;2.40;;
65373;SDS011;52070;53.760;9.678;2023-07-13T00:14:58;6.35;;;2.70;;
65373;SDS011;52070;53.760;9.678;2023-07-13T00:17:27;6.65;;;2.50;;
65373;SDS011;52070;53.760;9.678;2023-07-13T00:19:54;5.47;;;2.65;;
65373;SDS011;52070;53.760;9.678;2023-07-13T00:22:22;10.13;;;2.50;;
65373;SDS011;52070;53.760;9.678;2023-07-13T00:24:52;4.68;;;2.30;;
65373;SDS011;52070;53.760;9.678;2023-07-13T00:27:21;6.18;;;2.78;;
65373;SDS011;52070;53.760;9.678;2023-07-13T00:29:49;6.70;;;3.00;;
65373;SDS011;52070;53.760;9.678;2023-07-13T00:32:16;8.57;;;3.30;;
65373;SDS011;52070;53.760;9.678;2023-07-13T00:34:43;4.97;;;3.20;;
65373;SDS011;52070;53.760;9.678;2023-07-13T00:37:10;9.02;;;3.08;;
65373;SDS011;52070;53.760;9.678;2023-07-13T00:39:37;9.05;;;3.50;;
65373;SDS011;52070;53.760;9.678;2023-07-13T00:42:06;9.68;;;3.20;;
65373;SDS011;52070;53.760;9.678;2023-07-13T00:44:33;7.57;;;3.50;;
65373;SDS011;52070;53.760;9.678;2023-07-13T00:47:00;7.63;;;3.30;;
65373;SDS011;52070;53.760;9.678;2023-07-13T00:49:28;10.85;;;3.28;;
65373;SDS011;52070;53.760;9.678;2023-07-13T00:51:57;7.25;;;3.45;;
65373;SDS011;52070;53.760;9.678;2023-07-13T00:54:27;7.03;;;3.17;;
65373;SDS011;52070;53.760;9.678;2023-07-13T00:56:57;7.90;;;3.47;;
65373;SDS011;52070;53.760;9.678;2023-07-13T00:59:28;5.63;;;2.90;;
65373;SDS011;52070;53.760;9.678;2023-07-13T01:01:57;10.55;;;3.92;;
65373;SDS011;52070;53.760;9.678;2023-07-13T01:04:24;7.82;;;3.10;;
65373;SDS011;52070;53.760;9.678;2023-07-13T01:06:51;5.07;;;3.13;;
65373;SDS011;52070;53.760;9.678;2023-07-13T01:09:19;4.13;;;3.10;;
65373;SDS011;52070;53.760;9.678;2023-07-13T01:11:46;3.40;;;3.03;;
65373;SDS011;52070;53.760;9.678;2023-07-13T01:14:14;4.90;;;3.03;;
65373;SDS011;52070;53.760;9.678;2023-07-13T01:16:44;9.93;;;3.65;;
65373;SDS011;52070;53.760;9.678;2023-07-13T01:19:16;6.97;;;3.10;;
65373;SDS011;52070;53.760;9.678;2023-07-13T01:21:52;5.55;;;3.53;;
65373;SDS011;52070;53.760;9.678;2023-07-13T01:24:19;6.75;;;3.63;;
65373;SDS011;52070;53.760;9.678;2023-07-13T01:26:46;6.43;;;3.58;;
65373;SDS011;52070;53.760;9.678;2023-07-13T01:29:13;5.63;;;3.72;;
65373;SDS011;52070;53.760;9.678;2023-07-13T01:31:40;13.77;;;4.57;;
65373;SDS011;52070;53.760;9.678;2023-07-13T01:34:10;8.02;;;4.53;;
65373;SDS011;52070;53.760;9.678;2023-07-13T01:36:37;9.98;;;4.20;;
65373;SDS011;52070;53.760;9.678;2023-07-13T01:39:05;9.93;;;5.28;;
65373;SDS011;52070;53.760;9.678;2023-07-13T01:41:32;9.18;;;5.25;;
65373;SDS011;52070;53.760;9.678;2023-07-13T01:43:59;10.55;;;5.28;;
65373;SDS011;52070;53.760;9.678;2023-07-13T01:46:26;12.63;;;5.00;;
65373;SDS011;52070;53.760;9.678;2023-07-13T01:48:53;9.77;;;5.35;;
65373;SDS011;52070;53.760;9.678;2023-07-13T01:51:20;9.35;;;6.13;;
65373;SDS011;52070;53.760;9.678;2023-07-13T01:53:47;10.82;;;5.47;;
65373;SDS011;52070;53.760;9.678;2023-07-13T01:56:16;12.00;;;6.80;;
65373;SDS011;52070;53.760;9.678;2023-07-13T01:58:44;8.88;;;5.82;;
65373;SDS011;52070;53.760;9.678;2023-07-13T02:01:11;14.35;;;6.65;;
65373;SDS011;52070;53.760;9.678;2023-07-13T02:03:38;15.00;;;7.07;;
65373;SDS011;52070;53.760;9.678;2023-07-13T02:06:05;12.23;;;7.05;;
65373;SDS011;52070;53.760;9.678;2023-07-13T02:08:33;13.07;;;6.60;;
65373;SDS011;52070;53.760;9.678;2023-07-13T02:11:00;15.00;;;6.47;;
65373;SDS011;52070;53.760;9.678;2023-07-13T02:13:28;13.43;;;7.63;;
65373;SDS011;52070;53.760;9.678;2023-07-13T02:15:55;11.88;;;6.70;;
65373;SDS011;52070;53.760;9.678;2023-07-13T02:18:22;12.95;;;7.03;;
65373;SDS011;52070;53.760;9.678;2023-07-13T02:20:49;10.02;;;7.50;;
65373;SDS011;52070;53.760;9.678;2023-07-13T02:23:16;15.10;;;7.18;;
65373;SDS011;52070;53.760;9.678;2023-07-13T02:25:43;13.65;;;7.32;;
65373;SDS011;52070;53.760;9.678;2023-07-13T02:28:10;11.70;;;7.55;;
65373;SDS011;52070;53.760;9.678;2023-07-13T02:30:38;16.55;;;6.72;;
65373;SDS011;52070;53.760;9.678;2023-07-13T02:33:05;12.70;;;8.05;;
65373;SDS011;52070;53.760;9.678;2023-07-13T02:35:32;14.15;;;7.13;;
65373;SDS011;52070;53.760;9.678;2023-07-13T02:37:59;17.20;;;7.40;;
65373;SDS011;52070;53.760;9.678;2023-07-13T02:40:26;15.45;;;7.75;;
65373;SDS011;52070;53.760;9.678;2023-07-13T02:42:53;19.25;;;8.23;;
65373;SDS011;52070;53.760;9.678;2023-07-13T02:45:20;13.98;;;7.85;;
65373;SDS011;52070;53.760;9.678;2023-07-13T02:47:48;12.68;;;7.57;;
65373;SDS011;52070;53.760;9.678;2023-07-13T02:50:15;11.93;;;7.55;;
65373;SDS011;52070;53.760;9.678;2023-07-13T02:52:42;12.75;;;7.55;;
65373;SDS011;52070;53.760;9.678;2023-07-13T02:55:09;15.40;;;7.85;;
65373;SDS011;52070;53.760;9.678;2023-07-13T02:57:36;13.98;;;7.63;;
65373;SDS011;52070;53.760;9.678;2023-07-13T03:00:04;20.52;;;8.13;;
65373;SDS011;52070;53.760;9.678;2023-07-13T03:02:31;12.52;;;7.35;;
65373;SDS011;52070;53.760;9.678;2023-07-13T03:05:00;11.18;;;7.32;;
65373;SDS011;52070;53.760;9.678;2023-07-13T03:07:27;14.35;;;7.25;;
65373;SDS011;52070;53.760;9.678;2023-07-13T03:09:54;13.80;;;7.53;;
65373;SDS011;52070;53.760;9.678;2023-07-13T03:12:23;14.40;;;7.38;;
65373;SDS011;52070;53.760;9.678;2023-07-13T03:14:50;15.93;;;7.53;;
65373;SDS011;52070;53.760;9.678;2023-07-13T03:17:17;17.50;;;7.35;;
65373;SDS011;52070;53.760;9.678;2023-07-13T03:19:44;13.90;;;7.50;;
65373;SDS011;52070;53.760;9.678;2023-07-13T03:22:16;13.35;;;6.90;;
65373;SDS011;52070;53.760;9.678;2023-07-13T03:24:43;11.82;;;6.18;;
65373;SDS011;52070;53.760;9.678;2023-07-13T03:27:10;14.32;;;6.93;;
65373;SDS011;52070;53.760;9.678;2023-07-13T03:29:37;12.13;;;6.75;;
65373;SDS011;52070;53.760;9.678;2023-07-13T03:32:05;11.70;;;6.45;;
65373;SDS011;52070;53.760;9.678;2023-07-13T03:34:32;8.52;;;6.28;;
65373;SDS011;52070;53.760;9.678;2023-07-13T03:36:59;11.35;;;6.35;;
65373;SDS011;52070;53.760;9.678;2023-07-13T03:39:28;10.50;;;6.35;;
65373;SDS011;52070;53.760;9.678;2023-07-13T03:41:55;8.82;;;6.22;;
65373;SDS011;52070;53.760;9.678;2023-07-13T03:44:22;9.30;;;6.05;;
65373;SDS011;52070;53.760;9.678;2023-07-13T03:46:49;9.65;;;5.75;;
65373;SDS011;52070;53.760;9.678;2023-07-13T03:49:16;9.10;;;6.07;;
65373;SDS011;52070;53.760;9.678;2023-07-13T03:51:43;8.93;;;6.00;;
65373;SDS011;52070;53.760;9.678;2023-07-13T03:54:10;17.10;;;6.03;;
65373;SDS011;52070;53.760;9.678;2023-07-13T03:56:38;10.95;;;6.20;;
65373;SDS011;52070;53.760;9.678;2023-07-13T03:59:05;11.60;;;5.47;;
65373;SDS011;52070;53.760;9.678;2023-07-13T04:01:32;16.25;;;5.90;;
65373;SDS011;52070;53.760;9.678;2023-07-13T04:04:00;13.45;;;5.35;;
65373;SDS011;52070;53.760;9.678;2023-07-13T04:06:27;10.32;;;5.90;;
65373;SDS011;52070;53.760;9.678;2023-07-13T04:08:56;12.65;;;5.28;;
65373;SDS011;52070;53.760;9.678;2023-07-13T04:11:25;9.38;;;5.47;;
65373;SDS011;52070;53.760;9.678;2023-07-13T04:13:55;12.55;;;5.35;;
65373;SDS011;52070;53.760;9.678;2023-07-13T04:16:22;11.18;;;5.47;;
65373;SDS011;52070;53.760;9.678;2023-07-13T04:18:50;12.30;;;5.22;;
65373;SDS011;52070;53.760;9.678;2023-07-13T04:21:20;9.30;;;5.10;;
65373;SDS011;52070;53.760;9.678;2023-07-13T04:23:47;11.52;;;5.13;;
65373;SDS011;52070;53.760;9.678;2023-07-13T04:26:14;11.98;;;4.95;;
65373;SDS011;52070;53.760;9.678;2023-07-13T04:28:41;9.02;;;4.35;;
65373;SDS011;52070;53.760;9.678;2023-07-13T04:31:10;12.60;;;4.60;;
65373;SDS011;52070;53.760;9.678;2023-07-13T04:33:37;12.48;;;4.72;;
65373;SDS011;52070;53.760;9.678;2023-07-13T04:36:04;14.38;;;4.40;;
65373;SDS011;52070;53.760;9.678;2023-07-13T04:38:32;19.83;;;4.82;;
65373;SDS011;52070;53.760;9.678;2023-07-13T04:41:00;13.10;;;4.35;;
65373;SDS011;52070;53.760;9.678;2023-07-13T04:43:29;8.25;;;4.30;;
65373;SDS011;52070;53.760;9.678;2023-07-13T04:45:57;9.70;;;4.10;;
65373;SDS011;52070;53.760;9.678;2023-07-13T04:48:32;14.88;;;4.53;;
65373;SDS011;52070;53.760;9.678;2023-07-13T04:50:59;13.93;;;4.30;;
65373;SDS011;52070;53.760;9.678;2023-07-13T04:53:27;9.60;;;3.83;;
65373;SDS011;52070;53.760;9.678;2023-07-13T04:55:54;23.15;;;3.90;;
65373;SDS011;52070;53.760;9.678;2023-07-13T04:58:21;18.75;;;4.03;;
65373;SDS011;52070;53.760;9.678;2023-07-13T05:00:49;17.90;;;4.47;;
65373;SDS011;52070;53.760;9.678;2023-07-13T05:03:16;12.07;;;3.50;;
65373;SDS011;52070;53.760;9.678;2023-07-13T05:05:53;14.73;;;3.55;;
65373;SDS011;52070;53.760;9.678;2023-07-13T05:08:21;7.07;;;3.40;;
65373;SDS011;52070;53.760;9.678;2023-07-13T05:10:48;12.85;;;3.58;;
65373;SDS011;52070;53.760;9.678;2023-07-13T05:13:16;11.80;;;3.75;;
65373;SDS011;52070;53.760;9.678;2023-07-13T05:15:43;17.85;;;3.97;;
65373;SDS011;52070;53.760;9.678;2023-07-13T05:18:10;10.38;;;3.50;;
65373;SDS011;52070;53.760;9.678;2023-07-13T05:20:37;17.75;;;3.78;;
65373;SDS011;52070;53.760;9.678;2023-07-13T05:23:05;10.27;;;3.33;;
65373;SDS011;52070;53.760;9.678;2023-07-13T05:25:32;13.70;;;3.65;;
65373;SDS011;52070;53.760;9.678;2023-07-13T05:27:59;13.73;;;3.80;;
65373;SDS011;52070;53.760;9.678;2023-07-13T05:30:26;10.98;;;3.42;;
65373;SDS011;52070;53.760;9.678;2023-07-13T05:32:53;22.02;;;4.00;;
65373;SDS011;52070;53.760;9.678;2023-07-13T05:35:21;16.55;;;3.92;;
65373;SDS011;52070;53.760;9.678;2023-07-13T05:37:48;15.02;;;3.72;;
65373;SDS011;52070;53.760;9.678;2023-07-13T05:40:16;10.38;;;3.60;;
65373;SDS011;52070;53.760;9.678;2023-07-13T05:42:43;14.13;;;3.50;;
65373;SDS011;52070;53.760;9.678;2023-07-13T05:45:11;16.77;;;4.22;;
65373;SDS011;52070;53.760;9.678;2023-07-13T05:47:37;12.65;;;4.00;;
65373;SDS011;52070;53.760;9.678;2023-07-13T05:50:05;20.38;;;4.55;;
65373;SDS011;52070;53.760;9.678;2023-07-13T05:52:33;15.00;;;3.97;;
65373;SDS011;52070;53.760;9.678;2023-07-13T05:55:00;15.65;;;3.80;;
65373;SDS011;52070;53.760;9.678;2023-07-13T05:57:29;15.63;;;3.35;;
65373;SDS011;52070;53.760;9.678;2023-07-13T05:59:57;13.20;;;3.30;;
65373;SDS011;52070;53.760;9.678;2023-07-13T06:02:27;12.80;;;3.63;;
65373;SDS011;52070;53.760;9.678;2023-07-13T06:04:54;13.40;;;3.78;;
65373;SDS011;52070;53.760;9.678;2023-07-13T06:07:21;18.08;;;4.40;;
65373;SDS011;52070;53.760;9.678;2023-07-13T06:09:48;12.63;;;3.80;;
65373;SDS011;52070;53.760;9.678;2023-07-13T06:12:15;15.20;;;4.13;;
65373;SDS011;52070;53.760;9.678;2023-07-13T06:14:43;14.32;;;3.97;;
65373;SDS011;52070;53.760;9.678;2023-07-13T06:17:10;12.60;;;3.50;;
65373;SDS011;52070;53.760;9.678;2023-07-13T06:19:37;9.55;;;3.65;;
65373;SDS011;52070;53.760;9.678;2023-07-13T06:22:04;16.38;;;3.78;;
65373;SDS011;52070;53.760;9.678;2023-07-13T06:24:32;15.98;;;3.42;;
65373;SDS011;52070;53.760;9.678;2023-07-13T06:26:59;8.55;;;3.40;;
65373;SDS011;52070;53.760;9.678;2023-07-13T06:29:26;11.05;;;3.40;;
65373;SDS011;52070;53.760;9.678;2023-07-13T06:31:54;11.40;;;3.45;;
65373;SDS011;52070;53.760;9.678;2023-07-13T06:34:21;11.52;;;3.38;;
65373;SDS011;52070;53.760;9.678;2023-07-13T06:36:48;13.20;;;3.92;;
65373;SDS011;52070;53.760;9.678;2023-07-13T06:39:15;13.85;;;3.42;;
65373;SDS011;52070;53.760;9.678;2023-07-13T06:41:42;12.50;;;3.20;;
65373;SDS011;52070;53.760;9.678;2023-07-13T06:44:09;17.00;;;3.30;;
65373;SDS011;52070;53.760;9.678;2023-07-13T06:46:36;13.90;;;3.05;;
65373;SDS011;52070;53.760;9.678;2023-07-13T06:49:04;12.63;;;3.58;;
65373;SDS011;52070;53.760;9.678;2023-07-13T06:51:31;14.80;;;3.42;;
65373;SDS011;52070;53.760;9.678;2023-07-13T06:53:58;11.02;;;3.60;;
65373;SDS011;52070;53.760;9.678;2023-07-13T06:56:25;14.05;;;3.40;;
65373;SDS011;52070;53.760;9.678;2023-07-13T06:58:52;11.77;;;3.35;;
65373;SDS011;52070;53.760;9.678;2023-07-13T07:01:19;9.57;;;3.78;;
65373;SDS011;52070;53.760;9.678;2023-07-13T07:03:46;14.25;;;3.35;;
65373;SDS011;52070;53.760;9.678;2023-07-13T07:06:15;9.27;;;3.40;;
65373;SDS011;52070;53.760;9.678;2023-07-13T07:08:44;13.75;;;3.80;;
65373;SDS011;52070;53.760;9.678;2023-07-13T07:11:12;11.10;;;3.30;;
65373;SDS011;52070;53.760;9.678;2023-07-13T07:13:40;15.93;;;3.60;;
65373;SDS011;52070;53.760;9.678;2023-07-13T07:16:07;13.02;;;3.00;;
65373;SDS011;52070;53.760;9.678;2023-07-13T07:18:34;13.07;;;3.30;;
65373;SDS011;52070;53.760;9.678;2023-07-13T07:21:01;12.75;;;2.65;;
65373;SDS011;52070;53.760;9.678;2023-07-13T07:23:30;17.75;;;3.20;;
65373;SDS011;52070;53.760;9.678;2023-07-13T07:25:57;15.63;;;3.40;;
65373;SDS011;52070;53.760;9.678;2023-07-13T07:28:24;15.25;;;3.33;;
65373;SDS011;52070;53.760;9.678;2023-07-13T07:30:54;13.38;;;3.00;;
65373;SDS011;52070;53.760;9.678;2023-07-13T07:33:22;19.67;;;3.65;;
65373;SDS011;52070;53.760;9.678;2023-07-13T07:35:49;14.35;;;3.25;;
65373;SDS011;52070;53.760;9.678;2023-07-13T07:38:16;20.42;;;3.92;;
65373;SDS011;52070;53.760;9.678;2023-07-13T07:40:44;8.52;;;2.92;;
65373;SDS011;52070;53.760;9.678;2023-07-13T07:43:12;10.25;;;3.03;;
65373;SDS011;52070;53.760;9.678;2023-07-13T07:45:39;17.55;;;3.30;;
65373;SDS011;52070;53.760;9.678;2023-07-13T07:48:07;15.90;;;3.22;;
65373;SDS011;52070;53.760;9.678;2023-07-13T07:50:35;11.98;;;3.15;;
65373;SDS011;52070;53.760;9.678;2023-07-13T07:53:02;14.52;;;3.45;;
65373;SDS011;52070;53.760;9.678;2023-07-13T07:55:32;10.85;;;3.17;;
65373;SDS011;52070;53.760;9.678;2023-07-13T07:58:02;13.02;;;2.92;;
65373;SDS011;52070;53.760;9.678;2023-07-13T08:00:29;16.70;;;2.85;;
65373;SDS011;52070;53.760;9.678;2023-07-13T08:02:57;12.60;;;2.88;;
65373;SDS011;52070;53.760;9.678;2023-07-13T08:05:24;10.60;;;2.53;;
65373;SDS011;52070;53.760;9.678;2023-07-13T08:07:51;9.93;;;2.50;;
65373;SDS011;52070;53.760;9.678;2023-07-13T08:10:18;7.45;;;2.30;;
65373;SDS011;52070;53.760;9.678;2023-07-13T08:12:46;13.48;;;2.70;;
65373;SDS011;52070;53.760;9.678;2023-07-13T08:15:15;9.40;;;2.50;;
65373;SDS011;52070;53.760;9.678;2023-07-13T08:17:42;10.60;;;2.60;;
65373;SDS011;52070;53.760;9.678;2023-07-13T08:20:10;12.13;;;2.85;;
65373;SDS011;52070;53.760;9.678;2023-07-13T08:22:37;10.73;;;2.75;;
65373;SDS011;52070;53.760;9.678;2023-07-13T08:25:04;15.00;;;3.35;;
65373;SDS011;52070;53.760;9.678;2023-07-13T08:27:32;11.95;;;2.90;;
65373;SDS011;52070;53.760;9.678;2023-07-13T08:29:59;12.98;;;2.80;;
65373;SDS011;52070;53.760;9.678;2023-07-13T08:32:28;15.82;;;2.78;;
65373;SDS011;52070;53.760;9.678;2023-07-13T08:34:55;10.27;;;2.75;;
65373;SDS011;52070;53.760;9.678;2023-07-13T08:37:22;9.68;;;2.95;;
65373;SDS011;52070;53.760;9.678;2023-07-13T08:39:49;11.43;;;2.88;;
65373;SDS011;52070;53.760;9.678;2023-07-13T08:42:31;11.00;;;2.80;;
65373;SDS011;52070;53.760;9.678;2023-07-13T08:45:04;8.85;;;3.05;;
65373;SDS011;52070;53.760;9.678;2023-07-13T08:47:40;13.10;;;2.65;;
65373;SDS011;52070;53.760;9.678;2023-07-13T08:50:11;11.70;;;2.92;;
65373;SDS011;52070;53.760;9.678;2023-07-13T08:52:41;10.45;;;3.05;;
65373;SDS011;52070;53.760;9.678;2023-07-13T08:55:12;12.65;;;2.70;;
65373;SDS011;52070;53.760;9.678;2023-07-13T08:57:43;14.07;;;3.30;;
65373;SDS011;52070;53.760;9.678;2023-07-13T09:00:14;11.68;;;3.20;;
65373;SDS011;52070;53.760;9.678;2023-07-13T09:02:44;15.55;;;2.75;;
65373;SDS011;52070;53.760;9.678;2023-07-13T09:05:13;9.07;;;2.92;;
65373;SDS011;52070;53.760;9.678;2023-07-13T09:07:48;7.03;;;2.50;;
65373;SDS011;52070;53.760;9.678;2023-07-13T09:10:26;12.48;;;2.42;;
65373;SDS011;52070;53.760;9.678;2023-07-13T09:13:00;12.77;;;2.83;;
65373;SDS011;52070;53.760;9.678;2023-07-13T09:15:39;9.65;;;2.83;;
65373;SDS011;52070;53.760;9.678;2023-07-13T09:18:10;8.70;;;2.40;;
65373;SDS011;52070;53.760;9.678;2023-07-13T09:20:42;11.50;;;2.42;;
65373;SDS011;52070;53.760;9.678;2023-07-13T09:23:14;14.00;;;2.63;;
65373;SDS011;52070;53.760;9.678;2023-07-13T09:25:44;8.57;;;3.00;;
65373;SDS011;52070;53.760;9.678;2023-07-13T09:28:14;10.95;;;2.58;;
65373;SDS011;52070;53.760;9.678;2023-07-13T09:33:14;9.73;;;2.35;;
65373;SDS011;52070;53.760;9.678;2023-07-13T09:35:41;9.35;;;2.92;;
65373;SDS011;52070;53.760;9.678;2023-07-13T09:38:12;12.70;;;2.88;;
65373;SDS011;52070;53.760;9.678;2023-07-13T09:40:43;10.52;;;2.60;;
65373;SDS011;52070;53.760;9.678;2023-07-13T09:43:17;9.30;;;2.78;;
65373;SDS011;52070;53.760;9.678;2023-07-13T09:45:46;12.95;;;2.60;;
65373;SDS011;52070;53.760;9.678;2023-07-13T09:48:16;11.48;;;2.58;;
65373;SDS011;52070;53.760;9.678;2023-07-13T09:50:43;7.97;;;2.60;;
65373;SDS011;52070;53.760;9.678;2023-07-13T09:53:11;9.05;;;2.38;;
65373;SDS011;52070;53.760;9.678;2023-07-13T09:55:40;7.30;;;2.17;;
65373;SDS011;52070;53.760;9.678;2023-07-13T09:58:10;7.20;;;2.42;;
65373;SDS011;52070;53.760;9.678;2023-07-13T10:00:40;12.05;;;2.58;;
65373;SDS011;52070;53.760;9.678;2023-07-13T10:03:18;12.25;;;2.50;;
65373;SDS011;52070;53.760;9.678;2023-07-13T10:05:48;6.32;;;2.13;;
65373;SDS011;52070;53.760;9.678;2023-07-13T10:08:21;11.52;;;2.28;;
65373;SDS011;52070;53.760;9.678;2023-07-13T10:10:54;10.07;;;2.40;;
65373;SDS011;52070;53.760;9.678;2023-07-13T10:13:35;13.07;;;3.00;;
65373;SDS011;52070;53.760;9.678;2023-07-13T10:16:03;11.38;;;3.35;;
65373;SDS011;52070;53.760;9.678;2023-07-13T10:18:36;9.27;;;3.63;;
65373;SDS011;52070;53.760;9.678;2023-07-13T10:21:14;11.93;;;3.45;;
65373;SDS011;52070;53.760;9.678;2023-07-13T10:23:44;14.52;;;4.13;;
65373;SDS011;52070;53.760;9.678;2023-07-13T10:26:15;13.25;;;3.50;;
65373;SDS011;52070;53.760;9.678;2023-07-13T10:28:45;7.13;;;3.30;;
65373;SDS011;52070;53.760;9.678;2023-07-13T10:31:16;9.32;;;3.60;;
65373;SDS011;52070;53.760;9.678;2023-07-13T10:33:46;7.85;;;1.90;;
65373;SDS011;52070;53.760;9.678;2023-07-13T10:36:15;7.00;;;2.03;;
65373;SDS011;52070;53.760;9.678;2023-07-13T10:38:46;8.48;;;1.70;;
65373;SDS011;52070;53.760;9.678;2023-07-13T10:43:45;5.13;;;1.48;;
65373;SDS011;52070;53.760;9.678;2023-07-13T10:46:17;7.80;;;1.52;;
65373;SDS011;52070;53.760;9.678;2023-07-13T10:48:49;6.28;;;1.48;;
65373;SDS011;52070;53.760;9.678;2023-07-13T10:51:20;6.18;;;1.20;;
65373;SDS011;52070;53.760;9.678;2023-07-13T10:53:48;6.30;;;1.20;;
65373;SDS011;52070;53.760;9.678;2023-07-13T10:56:42;5.55;;;1.13;;
65373;SDS011;52070;53.760;9.678;2023-07-13T10:59:11;3.63;;;1.20;;
65373;SDS011;52070;53.760;9.678;2023-07-13T11:01:52;8.20;;;2.30;;
65373;SDS011;52070;53.760;9.678;2023-07-13T11:04:22;8.43;;;1.80;;
65373;SDS011;52070;53.760;9.678;2023-07-13T11:06:52;7.03;;;1.52;;
65373;SDS011;52070;53.760;9.678;2023-07-13T11:09:35;2.85;;;1.27;;
65373;SDS011;52070;53.760;9.678;2023-07-13T11:12:08;3.28;;;1.65;;
65373;SDS011;52070;53.760;9.678;2023-07-13T11:15:01;6.57;;;1.60;;
65373;SDS011;52070;53.760;9.678;2023-07-13T11:20:09;6.40;;;1.70;;
65373;SDS011;52070;53.760;9.678;2023-07-13T11:22:46;10.15;;;1.90;;
65373;SDS011;52070;53.760;9.678;2023-07-13T11:25:27;9.87;;;2.30;;
65373;SDS011;52070;53.760;9.678;2023-07-13T11:28:15;11.63;;;2.45;;
65373;SDS011;52070;53.760;9.678;2023-07-13T11:30:46;11.10;;;2.40;;
65373;SDS011;52070;53.760;9.678;2023-07-13T11:33:16;15.43;;;2.40;;
65373;SDS011;52070;53.760;9.678;2023-07-13T11:35:46;9.57;;;2.30;;
65373;SDS011;52070;53.760;9.678;2023-07-13T11:38:19;10.20;;;2.40;;
65373;SDS011;52070;53.760;9.678;2023-07-13T11:40:50;9.18;;;2.10;;
65373;SDS011;52070;53.760;9.678;2023-07-13T11:43:20;6.47;;;1.80;;
65373;SDS011;52070;53.760;9.678;2023-07-13T11:45:49;6.82;;;2.13;;
65373;SDS011;52070;53.760;9.678;2023-07-13T11:48:20;7.90;;;2.20;;
65373;SDS011;52070;53.760;9.678;2023-07-13T11:50:49;10.68;;;2.58;;
65373;SDS011;52070;53.760;9.678;2023-07-13T11:53:22;9.23;;;2.40;;
65373;SDS011;52070;53.760;9.678;2023-07-13T11:55:53;6.47;;;2.10;;
65373;SDS011;52070;53.760;9.678;2023-07-13T11:58:22;10.57;;;2.65;;
65373;SDS011;52070;53.760;9.678;2023-07-13T12:00:51;5.97;;;2.38;;
65373;SDS011;52070;53.760;9.678;2023-07-13T12:03:22;10.50;;;2.42;;
65373;SDS011;52070;53.760;9.678;2023-07-13T12:05:57;9.10;;;2.67;;
65373;SDS011;52070;53.760;9.678;2023-07-13T12:08:26;5.60;;;2.72;;
65373;SDS011;52070;53.760;9.678;2023-07-13T12:11:00;9.57;;;3.03;;
65373;SDS011;52070;53.760;9.678;2023-07-13T12:13:35;9.98;;;2.85;;
65373;SDS011;52070;53.760;9.678;2023-07-13T12:16:08;6.47;;;2.58;;
65373;SDS011;52070;53.760;9.678;2023-07-13T12:18:38;9.82;;;2.80;;
65373;SDS011;52070;53.760;9.678;2023-07-13T12:21:10;11.20;;;2.95;;
65373;SDS011;52070;53.760;9.678;2023-07-13T12:23:39;9.52;;;2.35;;
65373;SDS011;52070;53.760;9.678;2023-07-13T12:26:10;7.57;;;2.53;;
65373;SDS011;52070;53.760;9.678;2023-07-13T12:28:39;8.70;;;2.25;;
65373;SDS011;52070;53.760;9.678;2023-07-13T12:31:22;6.68;;;2.10;;
65373;SDS011;52070;53.760;9.678;2023-07-13T12:33:58;10.30;;;2.97;;
65373;SDS011;52070;53.760;9.678;2023-07-13T12:36:29;11.32;;;2.53;;
65373;SDS011;52070;53.760;9.678;2023-07-13T12:38:59;7.63;;;2.60;;
65373;SDS011;52070;53.760;9.678;2023-07-13T12:41:32;14.25;;;2.83;;
65373;SDS011;52070;53.760;9.678;2023-07-13T12:44:00;8.80;;;2.50;;
65373;SDS011;52070;53.760;9.678;2023-07-13T12:46:27;8.95;;;2.60;;
65373;SDS011;52070;53.760;9.678;2023-07-13T12:48:56;11.43;;;2.60;;
65373;SDS011;52070;53.760;9.678;2023-07-13T12:51:25;7.35;;;2.08;;
65373;SDS011;52070;53.760;9.678;2023-07-13T12:53:56;5.82;;;2.08;;
65373;SDS011;52070;53.760;9.678;2023-07-13T12:56:32;7.72;;;2.00;;
65373;SDS011;52070;53.760;9.678;2023-07-13T12:59:01;7.20;;;2.03;;
65373;SDS011;52070;53.760;9.678;2023-07-13T13:04:01;4.57;;;1.80;;
65373;SDS011;52070;53.760;9.678;2023-07-13T13:06:32;7.13;;;1.92;;
65373;SDS011;52070;53.760;9.678;2023-07-13T13:09:01;5.03;;;2.10;;
65373;SDS011;52070;53.760;9.678;2023-07-13T13:11:29;4.55;;;2.17;;
65373;SDS011;52070;53.760;9.678;2023-07-13T13:13:59;4.78;;;1.70;;
65373;SDS011;52070;53.760;9.678;2023-07-13T13:16:30;6.30;;;1.95;;
65373;SDS011;52070;53.760;9.678;2023-07-13T13:19:00;5.65;;;1.80;;
65373;SDS011;52070;53.760;9.678;2023-07-13T13:21:36;7.22;;;2.00;;
65373;SDS011;52070;53.760;9.678;2023-07-13T13:24:04;6.65;;;1.80;;
65373;SDS011;52070;53.760;9.678;2023-07-13T13:26:37;2.95;;;1.67;;
65373;SDS011;52070;53.760;9.678;2023-07-13T13:29:10;7.25;;;2.00;;
65373;SDS011;52070;53.760;9.678;2023-07-13T13:31:39;5.68;;;1.92;;
65373;SDS011;52070;53.760;9.678;2023-07-13T13:34:07;5.22;;;1.80;;
65373;SDS011;52070;53.760;9.678;2023-07-13T13:36:36;6.25;;;1.80;;
65373;SDS011;52070;53.760;9.678;2023-07-13T13:39:05;6.03;;;1.60;;
65373;SDS011;52070;53.760;9.678;2023-07-13T13:41:48;3.97;;;1.50;;
65373;SDS011;52070;53.760;9.678;2023-07-13T13:44:17;5.25;;;2.10;;
65373;SDS011;52070;53.760;9.678;2023-07-13T13:46:44;4.50;;;1.23;;
65373;SDS011;52070;53.760;9.678;2023-07-13T13:49:13;2.63;;;1.10;;
65373;SDS011;52070;53.760;9.678;2023-07-13T13:51:43;3.22;;;1.20;;
65373;SDS011;52070;53.760;9.678;2023-07-13T13:54:13;5.97;;;1.45;;
65373;SDS011;52070;53.760;9.678;2023-07-13T13:56:42;4.15;;;1.30;;
65373;SDS011;52070;53.760;9.678;2023-07-13T13:59:09;7.90;;;1.20;;
65373;SDS011;52070;53.760;9.678;2023-07-13T14:01:40;3.05;;;1.42;;
65373;SDS011;52070;53.760;9.678;2023-07-13T14:04:09;3.10;;;1.27;;
65373;SDS011;52070;53.760;9.678;2023-07-13T14:06:41;2.50;;;1.10;;
65373;SDS011;52070;53.760;9.678;2023-07-13T14:09:09;4.28;;;1.10;;
65373;SDS011;52070;53.760;9.678;2023-07-13T14:11:37;2.15;;;1.02;;
65373;SDS011;52070;53.760;9.678;2023-07-13T14:14:04;3.05;;;1.30;;
65373;SDS011;52070;53.760;9.678;2023-07-13T14:16:31;4.10;;;1.25;;
65373;SDS011;52070;53.760;9.678;2023-07-13T14:19:01;3.20;;;1.17;;
65373;SDS011;52070;53.760;9.678;2023-07-13T14:21:28;2.08;;;1.35;;
65373;SDS011;52070;53.760;9.678;2023-07-13T14:23:56;5.25;;;1.52;;
65373;SDS011;52070;53.760;9.678;2023-07-13T14:26:24;4.72;;;1.23;;
65373;SDS011;52070;53.760;9.678;2023-07-13T14:28:53;5.03;;;1.70;;
65373;SDS011;52070;53.760;9.678;2023-07-13T14:31:22;4.97;;;1.60;;
65373;SDS011;52070;53.760;9.678;2023-07-13T14:33:50;3.55;;;1.20;;
65373;SDS011;52070;53.760;9.678;2023-07-13T14:36:23;5.63;;;1.30;;
65373;SDS011;52070;53.760;9.678;2023-07-13T14:38:54;9.60;;;1.90;;
65373;SDS011;52070;53.760;9.678;2023-07-13T14:41:21;3.60;;;1.50;;
65373;SDS011;52070;53.760;9.678;2023-07-13T14:43:49;4.90;;;1.20;;
65373;SDS011;52070;53.760;9.678;2023-07-13T14:46:18;1.98;;;1.00;;
65373;SDS011;52070;53.760;9.678;2023-07-13T14:48:54;4.78;;;1.20;;
65373;SDS011;52070;53.760;9.678;2023-07-13T14:51:28;2.28;;;1.10;;
65373;SDS011;52070;53.760;9.678;2023-07-13T14:53:56;5.45;;;1.50;;
65373;SDS011;52070;53.760;9.678;2023-07-13T14:56:26;3.22;;;1.20;;
65373;SDS011;52070;53.760;9.678;2023-07-13T14:58:53;4.40;;;1.27;;
65373;SDS011;52070;53.760;9.678;2023-07-13T15:01:20;5.35;;;1.40;;